• Join FlightAware (Why Join?)
  • Login
  • US Flag 
09:49PM EST


 

Airport Tracker/Info


-or-


 

Live Flight TrackerFlight Track Log ✈ N589H ✈ 14-May-2014 ✈ MYGF / FPO - KMIA

Flight Track Log - Related Links

Times and Time Zones

All times are in EDT time to prevent confusion due to time zone crossing. See the N589H flight status page for this flight to view local times or setup timezone preferences in your user account.

Time Position Orientation Groundspeed Altitude Reporting Facility
EDT Latitude Longitude Course Direction KTS MPH feet Rate Location/Type
10:16AM 26.5472 -78.8811 242° Southwest 246 283 7,000  Level Miami Center
10:17AM 26.5414 -78.9544 265° West 240 276 10,100 2,340 Climbing Miami Center
10:18AM 26.3661 -79.1034 242° Southwest  Level Estimated
10:18AM 26.5339 -79.0272 263° West 237 273 11,900  Level Miami Center
10:19AM 26.3339 -79.1712 242° Southwest  Level Estimated
10:19AM 26.4839 -79.0964 231° Southwest 279 321 11,900  Level Miami Center
10:20AM 26.3016 -79.2390 242° Southwest  Level Estimated
10:20AM 26.4294 -79.1722 231° Southwest 312 359 12,000  Level Miami Center
10:21AM 26.2693 -79.3068 242° Southwest  Level Estimated
10:21AM 26.3592 -79.2686 231° Southwest 322 371 12,000  Level Miami Center
10:22AM 26.2370 -79.3745 242° Southwest  Level Estimated
10:22AM 26.3031 -79.3464 231° Southwest 321 369 12,000  Level Miami Center
10:23AM 26.2486 -79.4203 231° Southwest 322 371 11,900 -480 Descending Miami Center
10:25AM 26.1947 -79.4961 232° Southwest 314 361 11,100 -960 Descending Miami Center
10:25AM 26.1753 -79.5236 232° Southwest 311 358 10,700 -1,560 Descending Miami Center
10:26AM 26.1253 -79.5919 231° Southwest 308 354 9,300 -1,500 Descending Miami Center
10:27AM 26.0869 -79.6436 230° Southwest 307 353 8,100 -1,260 Descending Miami Center
10:28AM 26.0575 -79.7214 247° West 278 320 6,900 -1,020 Descending Miami Center
10:29AM 26.0261 -79.8197 250° West 280 322 6,000 -480 Descending Miami Center
10:30AM 25.9964 -79.9056 249° West 296 341 6,000 -60 Level Miami Center
10:31AM 25.9694 -79.9933 251° West 298 343 5,900 -120 Descending Miami Center
10:32AM 25.9364 -80.0858 248° West 303 349 5,800 -660 Descending Miami Center
10:33AM 25.9103 -80.1694 251° West 281 323 4,600 -960 Descending Miami Center
10:34AM 25.8928 -80.2469 256° West 285 328 4,000 -480 Descending Miami Center
10:35AM 25.8914 -80.3347 269° West 239 275 3,700 -480 Descending Miami Center
10:36AM 25.8928 -80.4114 271° West 242 278 3,000 -420 Descending Miami Center
10:37AM 25.8647 -80.4600 237° Southwest 181 208 2,900 -180 Descending Miami Center
10:38AM 25.8336 -80.4283 138° Southeast 155 178 2,700 -660 Descending Miami Center
10:39AM 25.8186 -80.3917 114° Southeast 124 143 1,600 -840 Descending Miami Center
10:40AM 25.8081 -80.3631 112° Southeast 113 130 1,200 -360 Descending Miami Center
10:40AM 25.8067 -80.3600 117° Southeast 117 135 1,200 -660 Level Miami Center
10:41AM 25.8028 -80.3222 97° East 118 136 400 -780 Descending Miami Center
10:43AM 25.7954 -80.2901 134° Southeast  Level Estimated
10:50AM 25.7954 -80.2901 134° Southeast  Level Estimated